createdAt,value
2018-11-21T00:01:18.984Z,45.17
2018-11-21T00:03:59.462Z,44.70
2018-11-21T00:06:41.178Z,47.20
2018-11-21T00:09:21.915Z,48.23
2018-11-21T00:12:01.792Z,47.10
2018-11-21T00:14:42.534Z,47.43
2018-11-21T00:17:22.611Z,48.10
2018-11-21T00:20:03.265Z,46.17
2018-11-21T00:22:44.014Z,49.43
2018-11-21T00:25:23.897Z,49.57
2018-11-21T00:28:03.964Z,49.57
2018-11-21T00:30:44.495Z,49.77
2018-11-21T00:33:25.270Z,48.80
2018-11-21T00:36:05.656Z,48.40
2018-11-21T00:38:45.675Z,45.73
2018-11-21T00:41:26.526Z,49.93
2018-11-21T00:44:07.283Z,48.10
2018-11-21T00:46:47.991Z,46.67
2018-11-21T00:49:28.274Z,48.10
2018-11-21T00:52:08.713Z,48.07
2018-11-21T00:54:49.246Z,48.47
2018-11-21T00:57:28.118Z,52.10
2018-11-21T01:00:08.598Z,52.80
2018-11-21T01:02:48.776Z,50.20
2018-11-21T01:05:29.438Z,50.50
2018-11-21T01:08:10.275Z,50.10
2018-11-21T01:10:51.008Z,48.67
2018-11-21T01:13:31.009Z,51.17
2018-11-21T01:16:11.773Z,47.77
2018-11-21T01:18:51.787Z,53.60
2018-11-21T01:21:31.822Z,47.50
2018-11-21T01:24:12.060Z,49.27
2018-11-21T01:26:52.685Z,48.80
2018-11-21T01:29:33.088Z,46.37
2018-11-21T01:32:13.754Z,50.37
2018-11-21T01:34:53.966Z,48.07
2018-11-21T01:37:34.605Z,47.77
2018-11-21T01:40:14.685Z,48.30
2018-11-21T01:42:55.357Z,51.70
2018-11-21T01:45:35.547Z,48.37
2018-11-21T01:48:15.947Z,51.67
2018-11-21T01:50:56.603Z,46.53
2018-11-21T01:53:37.096Z,49.77
2018-11-21T01:56:17.635Z,49.10
2018-11-21T01:58:58.437Z,49.63
2018-11-21T02:01:38.532Z,47.20
2018-11-21T02:04:19.012Z,47.97
2018-11-21T02:06:59.610Z,48.63
2018-11-21T02:09:39.986Z,44.77
2018-11-21T02:12:20.651Z,46.73
2018-11-21T02:15:01.361Z,47.03
2018-11-21T02:17:41.370Z,46.10
2018-11-21T02:20:21.985Z,47.33
2018-11-21T02:23:02.738Z,43.33
2018-11-21T02:25:43.194Z,44.63
2018-11-21T02:28:24.030Z,46.53
2018-11-21T02:31:04.025Z,44.73
2018-11-21T02:33:44.558Z,45.77
2018-11-21T02:36:25.310Z,44.90
2018-11-21T02:39:05.734Z,42.67
2018-11-21T02:41:45.751Z,44.30
2018-11-21T02:44:26.955Z,44.20
2018-11-21T02:47:07.797Z,43.60
2018-11-21T02:49:48.389Z,44.03
2018-11-21T02:52:29.104Z,44.57
2018-11-21T02:55:09.264Z,41.73
2018-11-21T02:57:49.932Z,45.03
2018-11-21T03:00:30.091Z,43.13
2018-11-21T03:03:10.886Z,47.33
2018-11-21T03:05:51.640Z,42.87
2018-11-21T03:08:31.725Z,46.20
2018-11-21T03:11:11.867Z,42.90
2018-11-21T03:13:51.820Z,45.00
2018-11-21T03:16:31.702Z,45.03
2018-11-21T03:19:11.857Z,45.00
2018-11-21T03:21:51.700Z,43.87
2018-11-21T03:24:31.749Z,42.93
2018-11-21T03:27:12.346Z,44.70
2018-11-21T03:29:53.151Z,47.17
2018-11-21T03:32:33.047Z,47.30
2018-11-21T03:35:13.550Z,44.97
2018-11-21T03:37:53.949Z,42.53
2018-11-21T03:40:34.520Z,48.30
2018-11-21T03:43:15.019Z,46.60
2018-11-21T03:45:55.203Z,44.93
2018-11-21T03:48:35.743Z,45.87
2018-11-21T03:51:16.204Z,45.80
2018-11-21T03:53:56.643Z,44.27
2018-11-21T03:56:37.837Z,49.57
2018-11-21T03:59:17.978Z,43.30
2018-11-21T04:01:58.506Z,46.13
2018-11-21T04:04:39.058Z,47.03
2018-11-21T04:07:19.731Z,47.37
2018-11-21T04:09:59.699Z,47.10
2018-11-21T04:12:40.504Z,46.33
2018-11-21T04:15:20.364Z,50.50
2018-11-21T04:18:01.084Z,46.50
2018-11-21T04:20:41.663Z,52.83
2018-11-21T04:23:22.287Z,52.77
2018-11-21T04:26:02.751Z,48.87
2018-11-21T04:28:43.370Z,51.20
2018-11-21T04:31:24.021Z,48.90
2018-11-21T04:34:04.304Z,48.03
2018-11-21T04:36:45.040Z,49.27
2018-11-21T04:39:25.018Z,49.37
2018-11-21T04:42:05.565Z,46.97
2018-11-21T04:44:45.470Z,44.97
2018-11-21T04:47:25.983Z,49.50
2018-11-21T04:50:06.874Z,50.47
2018-11-21T04:52:47.481Z,47.07
2018-11-21T04:55:28.314Z,50.33
2018-11-21T04:58:08.867Z,48.20
2018-11-21T05:00:49.646Z,52.47
2018-11-21T05:03:30.210Z,54.20
2018-11-21T05:06:10.223Z,60.40
2018-11-21T05:08:50.622Z,58.20
2018-11-21T05:11:30.984Z,56.33
2018-11-21T05:14:11.545Z,56.00
2018-11-21T05:16:52.023Z,55.13
2018-11-21T05:19:32.713Z,56.80
2018-11-21T05:22:13.060Z,54.47
2018-11-21T05:24:53.652Z,60.63
2018-11-21T05:27:34.012Z,59.50
2018-11-21T05:30:14.671Z,58.83
2018-11-21T05:32:54.505Z,57.13
2018-11-21T05:35:35.189Z,56.03
2018-11-21T05:38:15.132Z,56.07
2018-11-21T05:40:55.044Z,57.27
2018-11-21T05:43:35.762Z,54.50
2018-11-21T05:46:16.424Z,54.43
2018-11-21T05:48:56.636Z,56.20
2018-11-21T05:51:37.058Z,54.23
2018-11-21T05:54:17.674Z,55.97
2018-11-21T05:56:58.447Z,58.10
2018-11-21T05:59:38.911Z,55.30
2018-11-21T06:02:19.516Z,57.40
2018-11-21T06:05:41.989Z,53.20
2018-11-21T06:08:21.845Z,58.03
2018-11-21T06:11:04.019Z,56.37
2018-11-21T06:13:44.313Z,54.03
2018-11-21T06:16:24.438Z,58.80
2018-11-21T06:19:04.554Z,56.63
2018-11-21T06:21:44.400Z,53.23
2018-11-21T06:24:24.044Z,55.10
2018-11-21T06:27:03.725Z,53.80
2018-11-21T06:29:43.390Z,53.50
2018-11-21T06:32:24.530Z,49.70
2018-11-21T06:35:07.755Z,52.73
2018-11-21T06:37:49.495Z,54.43
2018-11-21T06:40:30.116Z,52.63
2018-11-21T06:43:10.070Z,50.23
2018-11-21T06:45:50.533Z,53.87
2018-11-21T06:48:30.234Z,51.03
2018-11-21T06:51:09.808Z,53.27
2018-11-21T06:53:49.448Z,51.53
2018-11-21T06:56:29.202Z,50.40
2018-11-21T06:59:08.864Z,48.43
2018-11-21T07:01:49.123Z,47.90
2018-11-21T07:04:28.763Z,47.37
2018-11-21T07:07:08.503Z,47.67
2018-11-21T07:09:48.352Z,49.90
2018-11-21T07:12:28.185Z,48.90
2018-11-21T07:15:08.271Z,47.40
2018-11-21T07:17:48.554Z,47.13
2018-11-21T07:20:28.211Z,48.87
2018-11-21T07:23:07.667Z,45.53
2018-11-21T07:25:47.584Z,45.17
2018-11-21T07:28:27.116Z,43.70
2018-11-21T07:31:07.066Z,46.90
2018-11-21T07:33:46.968Z,46.43
2018-11-21T07:36:26.820Z,45.00
2018-11-21T07:39:07.138Z,45.37
2018-11-21T07:41:46.926Z,44.07
2018-11-21T07:44:27.306Z,44.37
2018-11-21T07:47:07.219Z,45.10
2018-11-21T07:49:47.139Z,42.53
2018-11-21T07:52:27.711Z,43.27
2018-11-21T07:55:08.191Z,44.07
2018-11-21T07:57:49.973Z,45.87
2018-11-21T08:00:30.048Z,43.57
2018-11-21T08:03:09.855Z,43.50
2018-11-21T08:06:09.058Z,44.63
2018-11-21T08:08:58.704Z,41.90
2018-11-21T08:12:01.453Z,39.90
2018-11-21T08:15:00.497Z,42.63
2018-11-21T08:17:59.674Z,41.63
2018-11-21T08:20:59.340Z,38.70
2018-11-21T08:23:47.764Z,43.47
2018-11-21T08:26:38.033Z,40.90
2018-11-21T08:29:18.047Z,41.10
2018-11-21T08:31:58.478Z,41.13
2018-11-21T08:34:38.277Z,42.50
2018-11-21T08:37:18.020Z,39.20
2018-11-21T08:39:57.747Z,40.37
2018-11-21T08:42:37.900Z,45.60
2018-11-21T08:45:17.618Z,42.97
2018-11-21T08:47:57.330Z,41.13
2018-11-21T08:50:36.979Z,43.10
2018-11-21T08:53:16.542Z,50.73
2018-11-21T08:55:56.295Z,43.57
2018-11-21T08:58:36.306Z,41.57
2018-11-21T09:01:15.861Z,42.53
2018-11-21T09:03:55.597Z,42.17
2018-11-21T09:06:35.177Z,42.53
2018-11-21T09:09:15.838Z,42.60
2018-11-21T09:11:55.952Z,39.80
2018-11-21T09:14:35.681Z,42.20
2018-11-21T09:17:15.351Z,40.43
2018-11-21T09:19:54.879Z,43.73
2018-11-21T09:22:34.564Z,40.77
2018-11-21T09:25:14.418Z,41.27
2018-11-21T09:27:54.077Z,41.63
2018-11-21T09:30:33.727Z,39.97
2018-11-21T09:33:13.671Z,45.93
2018-11-21T09:35:53.282Z,40.40
2018-11-21T09:38:32.831Z,40.50
2018-11-21T09:41:12.549Z,41.27
2018-11-21T09:43:52.059Z,38.43
2018-11-21T09:46:32.020Z,39.97
2018-11-21T09:49:11.658Z,39.37
2018-11-21T09:51:51.384Z,44.37
2018-11-21T09:54:30.906Z,42.50
2018-11-21T09:57:10.775Z,38.17
2018-11-21T09:59:50.300Z,38.63
2018-11-21T10:02:30.666Z,37.20
2018-11-21T10:05:11.062Z,40.30
2018-11-21T10:07:51.184Z,36.87
2018-11-21T10:10:30.700Z,36.43
2018-11-21T10:13:10.467Z,39.57
2018-11-21T10:15:50.135Z,37.63
2018-11-21T10:18:30.342Z,41.13
2018-11-21T10:21:12.186Z,36.93
2018-11-21T10:23:52.711Z,37.97
2018-11-21T10:26:32.824Z,37.80
2018-11-21T10:29:12.574Z,37.97
2018-11-21T10:31:52.362Z,37.30
2018-11-21T10:34:32.655Z,34.20
2018-11-21T10:37:12.315Z,34.63
2018-11-21T10:39:51.906Z,32.63
2018-11-21T10:42:31.392Z,35.80
2018-11-21T10:45:11.161Z,33.57
2018-11-21T10:47:50.915Z,32.63
2018-11-21T10:50:30.679Z,30.27
2018-11-21T10:53:11.136Z,29.57
2018-11-21T10:55:50.910Z,29.67
2018-11-21T10:58:31.178Z,33.83
2018-11-21T11:01:22.951Z,30.53
2018-11-21T11:04:15.540Z,32.40
2018-11-21T11:07:14.884Z,32.07
2018-11-21T11:10:16.081Z,32.67
2018-11-21T11:13:18.798Z,31.23
2018-11-21T11:16:18.310Z,28.23
2018-11-21T11:19:17.999Z,30.13
2018-11-21T11:22:20.678Z,29.73
2018-11-21T11:25:09.541Z,30.43
2018-11-21T11:28:14.622Z,31.97
2018-11-21T11:31:11.759Z,30.43
2018-11-21T11:34:11.362Z,27.73
2018-11-21T11:37:10.747Z,28.60
2018-11-21T11:40:11.443Z,30.13
2018-11-21T11:43:11.943Z,29.23
2018-11-21T11:46:11.268Z,28.27
2018-11-21T11:49:10.814Z,29.53
2018-11-21T11:52:11.381Z,30.23
2018-11-21T11:55:10.355Z,28.77
2018-11-21T11:58:11.285Z,25.40
2018-11-21T12:01:10.754Z,26.77
2018-11-21T12:04:13.177Z,25.23
2018-11-21T12:07:12.867Z,27.83
2018-11-21T12:10:15.324Z,23.80
2018-11-21T12:13:17.608Z,28.47
2018-11-21T12:16:23.463Z,25.03
2018-11-21T12:19:28.979Z,24.70
2018-11-21T12:22:28.867Z,22.87
2018-11-21T12:25:24.748Z,21.03
2018-11-21T12:28:24.430Z,22.77
2018-11-21T12:31:26.642Z,22.63
2018-11-21T12:34:25.715Z,21.37
2018-11-21T12:37:28.491Z,20.03
2018-11-21T12:40:33.693Z,21.70
2018-11-21T12:43:33.516Z,20.40
2018-11-21T12:46:34.566Z,20.70
2018-11-21T12:49:31.601Z,22.60
2018-11-21T12:52:31.231Z,23.17
2018-11-21T12:55:11.404Z,23.13
2018-11-21T13:01:10.703Z,22.67
2018-11-21T13:04:16.511Z,22.43
2018-11-21T13:07:21.585Z,22.57
2018-11-21T13:10:24.577Z,22.43
2018-11-21T13:13:23.943Z,23.70
2018-11-21T13:16:29.348Z,25.27
2018-11-21T13:19:34.523Z,26.27
2018-11-21T13:22:40.225Z,21.90
2018-11-21T13:25:30.629Z,23.83
2018-11-21T13:28:30.348Z,23.17
2018-11-21T13:31:35.893Z,23.90
2018-11-21T13:34:35.193Z,22.77
2018-11-21T13:37:32.847Z,23.17
2018-11-21T13:40:24.024Z,22.50
2018-11-21T13:43:24.936Z,21.00
2018-11-21T13:46:25.707Z,22.80
2018-11-21T13:49:24.746Z,22.53
2018-11-21T13:52:30.698Z,22.43
2018-11-21T13:55:11.067Z,23.40
2018-11-21T13:57:51.118Z,25.70
2018-11-21T14:00:30.845Z,23.60
2018-11-21T14:03:10.488Z,25.03
2018-11-21T14:05:50.646Z,21.00
2018-11-21T14:08:30.509Z,20.83
2018-11-21T14:11:10.245Z,19.30
2018-11-21T14:13:50.320Z,21.87
2018-11-21T14:16:29.927Z,18.93
2018-11-21T14:19:09.711Z,20.07
2018-11-21T14:21:49.886Z,20.60
2018-11-21T14:24:29.248Z,20.23
2018-11-21T14:27:09.803Z,20.20
2018-11-21T14:29:52.392Z,22.57
2018-11-21T14:32:35.404Z,25.03
2018-11-21T14:35:18.546Z,25.93
2018-11-21T14:37:58.501Z,26.20
2018-11-21T14:40:40.637Z,22.90
2018-11-21T14:43:22.923Z,23.60
2018-11-21T14:46:02.588Z,22.30
2018-11-21T14:48:42.288Z,24.93
2018-11-21T14:51:24.658Z,69.47
2018-11-21T14:54:08.233Z,35.77
2018-11-21T14:56:48.627Z,34.27
2018-11-21T14:59:28.280Z,32.20
2018-11-21T15:02:07.795Z,28.27
2018-11-21T15:04:47.512Z,34.20
2018-11-21T15:07:31.681Z,39.17
2018-11-21T15:10:14.695Z,42.90
2018-11-21T15:12:54.672Z,27.23
2018-11-21T15:15:35.297Z,28.17
2018-11-21T15:18:17.457Z,29.87
2018-11-21T15:21:03.127Z,30.90
2018-11-21T15:23:43.291Z,30.83
2018-11-21T15:26:26.101Z,32.00
2018-11-21T15:29:08.787Z,30.67
2018-11-21T15:31:51.083Z,35.47
2018-11-21T15:34:33.844Z,36.63
2018-11-21T15:37:14.347Z,44.33
2018-11-21T15:39:54.164Z,33.30
2018-11-21T15:42:37.097Z,31.47
2018-11-21T15:45:20.132Z,36.23
2018-11-21T15:48:04.654Z,37.63
2018-11-21T15:50:50.768Z,32.37
2018-11-21T15:53:30.718Z,36.77
2018-11-21T15:56:10.694Z,35.77
2018-11-21T15:58:50.653Z,36.40
2018-11-21T16:01:30.288Z,32.77
2018-11-21T16:04:10.953Z,37.30
2018-11-21T16:06:50.834Z,34.23
2018-11-21T16:09:30.501Z,44.87
2018-11-21T16:12:13.218Z,38.80
2018-11-21T16:14:53.307Z,38.77
2018-11-21T16:17:33.786Z,41.67
2018-11-21T16:20:15.588Z,37.53
2018-11-21T16:22:56.185Z,32.63
2018-11-21T16:25:39.233Z,35.83
2018-11-21T16:28:18.883Z,37.33
2018-11-21T16:30:59.004Z,33.33
2018-11-21T16:33:44.746Z,36.87
2018-11-21T16:36:27.285Z,36.37
2018-11-21T16:39:07.647Z,35.20
2018-11-21T16:41:47.803Z,35.17
2018-11-21T16:44:27.739Z,44.43
2018-11-21T16:47:07.659Z,45.50
2018-11-21T16:49:47.400Z,39.73
2018-11-21T16:52:32.711Z,37.03
2018-11-21T16:55:13.684Z,40.20
2018-11-21T16:57:57.963Z,42.60
2018-11-21T17:00:38.631Z,42.77
2018-11-21T17:03:19.093Z,38.03
2018-11-21T17:08:39.512Z,41.37
2018-11-21T17:11:19.633Z,39.50
2018-11-21T17:14:04.956Z,37.00
2018-11-21T17:16:45.100Z,37.00
2018-11-21T17:19:34.522Z,36.60
2018-11-21T17:22:26.174Z,34.63
2018-11-21T17:25:05.865Z,32.93
2018-11-21T17:27:48.885Z,34.40
2018-11-21T17:30:29.426Z,34.57
2018-11-21T17:33:10.094Z,33.20
2018-11-21T17:35:49.812Z,33.00
2018-11-21T17:38:33.655Z,36.30
2018-11-21T17:41:14.062Z,36.93
2018-11-21T17:43:53.822Z,36.50
2018-11-21T17:46:39.357Z,37.73
2018-11-21T17:49:19.262Z,41.40
2018-11-21T17:51:59.874Z,40.63
2018-11-21T17:54:40.396Z,42.73
2018-11-21T17:57:27.873Z,46.00
2018-11-21T18:00:02.909Z,39.87
2018-11-21T18:02:43.372Z,44.70
2018-11-21T18:05:30.015Z,41.60
2018-11-21T18:08:10.319Z,48.00
2018-11-21T18:10:50.131Z,49.17
2018-11-21T18:13:32.472Z,45.93
2018-11-21T18:16:12.266Z,46.67
2018-11-21T18:18:52.800Z,51.47
2018-11-21T18:21:35.417Z,54.67
2018-11-21T18:24:15.639Z,52.47
2018-11-21T18:26:56.264Z,55.40
2018-11-21T18:29:36.180Z,50.83
2018-11-21T18:32:16.702Z,49.77
2018-11-21T18:34:56.763Z,50.97
2018-11-21T18:37:37.267Z,52.53
2018-11-21T18:40:19.340Z,50.80
2018-11-21T18:42:59.605Z,52.60
2018-11-21T18:45:47.564Z,59.40
2018-11-21T18:48:29.944Z,66.03
2018-11-21T18:51:12.573Z,57.03
2018-11-21T18:53:54.832Z,66.17
2018-11-21T18:56:34.337Z,75.60
2018-11-21T18:59:24.930Z,92.97
2018-11-21T19:02:08.221Z,82.33
2018-11-21T19:04:51.050Z,87.63
2018-11-21T19:07:32.930Z,92.93
2018-11-21T19:13:29.741Z,97.10
2018-11-21T19:16:16.071Z,92.13
2018-11-21T19:18:56.501Z,75.70
2018-11-21T19:21:36.949Z,75.80
2018-11-21T19:24:17.676Z,69.93
2018-11-21T19:27:02.149Z,64.20
2018-11-21T19:29:42.054Z,71.20
2018-11-21T19:32:22.635Z,77.60
2018-11-21T19:35:02.934Z,80.40
2018-11-21T19:37:43.843Z,77.83
2018-11-21T19:40:24.671Z,65.33
2018-11-21T19:43:07.102Z,69.17
2018-11-21T19:45:52.578Z,66.70
2018-11-21T19:48:35.566Z,59.93
2018-11-21T19:51:16.248Z,56.13
2018-11-21T19:53:56.716Z,55.97
2018-11-21T19:56:37.228Z,54.53
2018-11-21T19:59:19.151Z,55.33
2018-11-21T20:02:06.410Z,54.20
2018-11-21T20:04:47.195Z,54.23
2018-11-21T20:07:27.372Z,52.43
2018-11-21T20:10:08.076Z,54.97
2018-11-21T20:12:51.657Z,53.50
2018-11-21T20:15:34.380Z,54.40
2018-11-21T20:18:19.864Z,51.13
2018-11-21T20:20:59.985Z,48.17
2018-11-21T20:23:43.003Z,48.97
2018-11-21T20:26:23.468Z,63.43
2018-11-21T20:29:03.409Z,63.97
2018-11-21T20:31:43.814Z,59.87
2018-11-21T20:34:24.863Z,55.40
2018-11-21T20:37:05.501Z,51.03
2018-11-21T20:39:46.941Z,49.20
2018-11-21T20:42:28.680Z,49.83
2018-11-21T20:45:08.896Z,49.53
2018-11-21T20:47:50.273Z,51.63
2018-11-21T20:50:30.942Z,50.17
2018-11-21T20:53:11.634Z,52.03
2018-11-21T20:55:53.438Z,66.07
2018-11-21T20:58:33.494Z,68.67
2018-11-21T21:01:16.696Z,71.40
2018-11-21T21:03:56.686Z,53.13
2018-11-21T21:06:36.335Z,55.67
2018-11-21T21:09:16.836Z,56.00
2018-11-21T21:11:57.458Z,55.77
2018-11-21T21:14:39.747Z,58.53
2018-11-21T21:17:23.351Z,56.33
2018-11-21T21:20:03.805Z,51.73
2018-11-21T21:22:44.250Z,55.83
2018-11-21T21:25:28.403Z,55.13
2018-11-21T21:28:08.265Z,66.13
2018-11-21T21:30:50.849Z,61.97
2018-11-21T21:33:30.875Z,61.83
2018-11-21T21:36:13.482Z,50.03
2018-11-21T21:38:53.382Z,50.27
2018-11-21T21:41:32.952Z,48.53
2018-11-21T21:44:12.671Z,46.40
2018-11-21T21:46:54.318Z,43.63
2018-11-21T21:49:33.954Z,47.33
2018-11-21T21:52:14.281Z,48.80
2018-11-21T21:54:56.996Z,47.90
2018-11-21T21:57:37.014Z,46.53
2018-11-21T22:00:23.766Z,45.47
2018-11-21T22:03:32.035Z,51.97
2018-11-21T22:06:13.206Z,44.90
2018-11-21T22:08:55.715Z,45.43
2018-11-21T22:11:45.074Z,46.07
2018-11-21T22:14:24.820Z,49.33
2018-11-21T22:17:07.547Z,49.33
2018-11-21T22:19:47.359Z,50.60
2018-11-21T22:22:32.180Z,49.40
2018-11-21T22:25:14.150Z,46.87
2018-11-21T22:27:54.446Z,44.97
2018-11-21T22:30:34.179Z,47.20
2018-11-21T22:33:16.488Z,51.50
2018-11-21T22:36:02.836Z,58.83
2018-11-21T22:38:40.895Z,54.07
2018-11-21T22:41:20.564Z,56.23
2018-11-21T22:44:03.553Z,54.23
2018-11-21T22:46:43.310Z,53.47
2018-11-21T22:49:23.095Z,54.23
2018-11-21T22:52:02.622Z,51.27
2018-11-21T22:54:42.257Z,48.63
2018-11-21T22:57:21.914Z,50.07
2018-11-21T23:00:01.604Z,52.00
2018-11-21T23:02:41.572Z,51.93
2018-11-21T23:05:21.105Z,50.67
2018-11-21T23:08:00.637Z,50.70
2018-11-21T23:10:40.594Z,49.50
2018-11-21T23:13:21.467Z,56.20
2018-11-21T23:16:01.421Z,51.93
2018-11-21T23:18:41.469Z,50.20
2018-11-21T23:21:21.123Z,53.13
2018-11-21T23:24:00.799Z,51.90
2018-11-21T23:26:41.192Z,52.07
2018-11-21T23:29:20.992Z,53.07
2018-11-21T23:32:01.358Z,55.60
2018-11-21T23:34:41.788Z,50.60
2018-11-21T23:37:21.463Z,50.83
2018-11-21T23:40:00.970Z,48.13
2018-11-21T23:42:41.672Z,52.93
2018-11-21T23:45:22.075Z,49.27
2018-11-21T23:48:01.888Z,52.23
2018-11-21T23:50:41.938Z,49.47
2018-11-21T23:53:21.547Z,50.17
2018-11-21T23:56:01.449Z,54.20
2018-11-21T23:58:41.105Z,56.17
